Time,TemperatureF,DewpointF,PressureIn,WindDirection,WindDirectionDegrees,WindSpeedMPH,WindSpeedGustMPH,Humidity,HourlyPrecipIn,Conditions,Clouds,dailyrainin,SoftwareType,DateUTC
2013-10-28 00:01:00,41.9,30.7,30.05,NW,315,0.0,0.0,64,0.00,,,0.00,WUHU21636XXSP,2013-10-28 05:01:00,
2013-10-28 00:06:00,41.9,30.7,30.06,NNW,337,0.0,0.0,64,0.00,,,0.00,WUHU21636XXSP,2013-10-28 05:06:00,
2013-10-28 00:11:00,41.9,30.7,30.06,NW,315,0.0,0.0,64,0.00,,,0.00,WUHU21636XXSP,2013-10-28 05:11:00,
2013-10-28 00:16:00,41.7,30.1,30.06,SE,135,0.0,0.0,63,0.00,,,0.00,WUHU21636XXSP,2013-10-28 05:16:00,
2013-10-28 00:21:00,41.7,30.1,30.06,SW,225,0.0,0.0,63,0.00,,,0.00,WUHU21636XXSP,2013-10-28 05:21:00,
2013-10-28 00:27:00,41.5,30.3,30.07,West,270,0.0,0.0,64,0.00,,,0.00,WUHU21636XXSP,2013-10-28 05:27:00,
2013-10-28 00:32:00,41.5,30.3,30.07,WNW,292,0.0,0.0,64,0.00,,,0.00,WUHU21636XXSP,2013-10-28 05:32:00,
2013-10-28 00:37:00,41.3,30.1,30.07,NW,315,0.0,0.0,64,0.00,,,0.00,WUHU21636XXSP,2013-10-28 05:37:00,
2013-10-28 00:42:00,41.3,30.5,30.07,ESE,112,0.0,0.0,65,0.00,,,0.00,WUHU21636XXSP,2013-10-28 05:42:00,
2013-10-28 00:47:00,41.2,30.4,30.07,West,270,0.0,0.0,65,0.00,,,0.00,WUHU21636XXSP,2013-10-28 05:47:00,
2013-10-28 00:52:00,41.0,30.2,30.07,NNE,22,0.0,0.0,65,0.00,,,0.00,WUHU21636XXSP,2013-10-28 05:52:00,
2013-10-28 00:57:00,40.7,30.0,30.07,SSW,202,0.0,0.0,65,0.00,,,0.00,WUHU21636XXSP,2013-10-28 05:57:00,
2013-10-28 01:02:00,40.7,30.0,30.08,SSW,202,0.0,0.0,65,0.00,,,0.00,WUHU21636XXSP,2013-10-28 06:02:00,
2013-10-28 01:07:00,40.5,29.8,30.08,South,180,0.0,0.0,65,0.00,,,0.00,WUHU21636XXSP,2013-10-28 06:07:00,
2013-10-28 01:12:00,40.5,29.8,30.08,SSW,202,0.0,0.0,65,0.00,,,0.00,WUHU21636XXSP,2013-10-28 06:12:00,
2013-10-28 01:17:00,40.3,29.6,30.09,North,0,0.0,0.0,65,0.00,,,0.00,WUHU21636XXSP,2013-10-28 06:17:00,
2013-10-28 01:21:00,40.3,29.6,30.09,NE,45,0.0,0.0,65,0.00,,,0.00,WUHU21636XXSP,2013-10-28 06:21:00,
2013-10-28 01:26:00,40.2,29.8,30.09,SE,135,0.0,0.0,66,0.00,,,0.00,WUHU21636XXSP,2013-10-28 06:26:00,
2013-10-28 01:31:00,40.0,29.6,30.09,SSE,157,0.0,0.0,66,0.00,,,0.00,WUHU21636XXSP,2013-10-28 06:31:00,
2013-10-28 01:36:00,40.0,29.6,30.09,SW,225,0.0,0.0,66,0.00,,,0.00,WUHU21636XXSP,2013-10-28 06:36:00,
2013-10-28 01:41:00,39.6,29.2,30.10,SSE,157,0.0,0.0,66,0.00,,,0.00,WUHU21636XXSP,2013-10-28 06:41:00,
2013-10-28 01:46:00,39.6,29.6,30.10,SSE,157,0.0,0.0,67,0.00,,,0.00,WUHU21636XXSP,2013-10-28 06:46:00,
2013-10-28 01:51:00,39.4,29.4,30.10,SSE,157,0.0,0.0,67,0.00,,,0.00,WUHU21636XXSP,2013-10-28 06:51:00,
2013-10-28 01:56:00,39.4,29.4,30.10,SSE,157,0.0,0.0,67,0.00,,,0.00,WUHU21636XXSP,2013-10-28 06:56:00,
2013-10-28 02:01:00,39.4,29.4,30.10,SSE,157,0.0,0.0,67,0.00,,,0.00,WUHU21636XXSP,2013-10-28 07:01:00,
2013-10-28 02:06:00,39.1,29.1,30.11,SSE,157,0.0,0.0,67,0.00,,,0.00,WUHU21636XXSP,2013-10-28 07:06:00,
2013-10-28 02:11:00,39.1,29.1,30.11,SSE,157,0.0,0.0,67,0.00,,,0.00,WUHU21636XXSP,2013-10-28 07:11:00,
2013-10-28 02:16:00,38.8,28.9,30.12,SSE,157,0.0,0.0,67,0.00,,,0.00,WUHU21636XXSP,2013-10-28 07:16:00,
2013-10-28 02:21:00,38.6,28.7,30.12,SSE,157,0.0,0.0,67,0.00,,,0.00,WUHU21636XXSP,2013-10-28 07:21:00,
2013-10-28 02:26:00,38.6,29.1,30.12,SSE,157,0.0,0.0,68,0.00,,,0.00,WUHU21636XXSP,2013-10-28 07:26:00,
2013-10-28 02:31:00,38.4,28.9,30.12,SSE,157,0.0,0.0,68,0.00,,,0.00,WUHU21636XXSP,2013-10-28 07:31:00,
2013-10-28 02:36:00,38.4,28.9,30.12,SSE,157,0.0,0.0,68,0.00,,,0.00,WUHU21636XXSP,2013-10-28 07:36:00,
2013-10-28 02:41:00,38.4,28.9,30.13,SSE,157,0.0,0.0,68,0.00,,,0.00,WUHU21636XXSP,2013-10-28 07:41:00,
2013-10-28 02:46:00,38.3,28.8,30.13,WSW,247,0.0,0.0,68,0.00,,,0.00,WUHU21636XXSP,2013-10-28 07:46:00,
2013-10-28 02:51:00,38.3,28.8,30.13,WSW,247,0.0,0.0,68,0.00,,,0.00,WUHU21636XXSP,2013-10-28 07:51:00,
2013-10-28 02:56:00,38.1,28.6,30.14,WSW,247,0.0,0.0,68,0.00,,,0.00,WUHU21636XXSP,2013-10-28 07:56:00,
2013-10-28 03:02:00,38.1,28.6,30.14,SW,225,0.0,0.0,68,0.00,,,0.00,WUHU21636XXSP,2013-10-28 08:02:00,
2013-10-28 03:07:00,37.9,28.7,30.14,SW,225,0.0,0.0,69,0.00,,,0.00,WUHU21636XXSP,2013-10-28 08:07:00,
2013-10-28 03:12:00,37.7,28.5,30.15,West,270,0.0,0.0,69,0.00,,,0.00,WUHU21636XXSP,2013-10-28 08:12:00,
2013-10-28 03:17:00,37.5,28.3,30.15,West,270,0.0,0.0,69,0.00,,,0.00,WUHU21636XXSP,2013-10-28 08:17:00,
2013-10-28 03:22:00,37.5,28.7,30.15,West,270,0.0,0.0,70,0.00,,,0.00,WUHU21636XXSP,2013-10-28 08:22:00,
2013-10-28 03:27:00,37.5,28.7,30.15,NW,315,0.0,0.0,70,0.00,,,0.00,WUHU21636XXSP,2013-10-28 08:27:00,
2013-10-28 03:32:00,37.5,28.7,30.15,NNE,22,0.0,0.0,70,0.00,,,0.00,WUHU21636XXSP,2013-10-28 08:32:00,
2013-10-28 03:37:00,37.4,28.6,30.15,West,270,0.0,0.0,70,0.00,,,0.00,WUHU21636XXSP,2013-10-28 08:37:00,
2013-10-28 03:42:00,37.2,28.4,30.16,WNW,292,0.0,0.0,70,0.00,,,0.00,WUHU21636XXSP,2013-10-28 08:42:00,
2013-10-28 03:47:00,37.0,28.2,30.17,NNW,337,0.0,0.0,70,0.00,,,0.00,WUHU21636XXSP,2013-10-28 08:47:00,
2013-10-28 03:52:00,37.0,28.2,30.16,NNW,337,0.0,0.0,70,0.00,,,0.00,WUHU21636XXSP,2013-10-28 08:52:00,
2013-10-28 03:57:00,37.0,28.5,30.16,SSE,157,0.0,0.0,71,0.00,,,0.00,WUHU21636XXSP,2013-10-28 08:57:00,
2013-10-28 04:02:00,36.8,28.3,30.17,ESE,112,0.0,0.0,71,0.00,,,0.00,WUHU21636XXSP,2013-10-28 09:02:00,
2013-10-28 04:07:00,36.8,28.3,30.17,East,90,0.0,0.0,71,0.00,,,0.00,WUHU21636XXSP,2013-10-28 09:07:00,
2013-10-28 04:12:00,36.8,28.3,30.17,East,90,0.0,0.0,71,0.00,,,0.00,WUHU21636XXSP,2013-10-28 09:12:00,
2013-10-28 04:17:00,36.5,28.4,30.17,East,90,0.0,0.0,72,0.00,,,0.00,WUHU21636XXSP,2013-10-28 09:17:00,
2013-10-28 04:22:00,36.5,28.4,30.18,NNE,22,0.0,0.0,72,0.00,,,0.00,WUHU21636XXSP,2013-10-28 09:22:00,
2013-10-28 04:27:00,36.5,28.4,30.18,WSW,247,0.0,0.0,72,0.00,,,0.00,WUHU21636XXSP,2013-10-28 09:27:00,
2013-10-28 04:32:00,36.4,28.3,30.19,NW,315,0.0,0.0,72,0.00,,,0.00,WUHU21636XXSP,2013-10-28 09:32:00,
2013-10-28 04:37:00,36.4,28.3,30.19,West,270,0.0,0.0,72,0.00,,,0.00,WUHU21636XXSP,2013-10-28 09:37:00,
2013-10-28 04:42:00,36.2,28.1,30.19,NE,45,0.0,0.0,72,0.00,,,0.00,WUHU21636XXSP,2013-10-28 09:42:00,
2013-10-28 04:47:00,36.2,28.1,30.19,East,90,0.0,0.0,72,0.00,,,0.00,WUHU21636XXSP,2013-10-28 09:47:00,
2013-10-28 04:52:00,36.2,28.5,30.19,ENE,67,0.0,0.0,73,0.00,,,0.00,WUHU21636XXSP,2013-10-28 09:52:00,
2013-10-28 04:57:00,36.2,28.5,30.19,North,0,0.0,0.0,73,0.00,,,0.00,WUHU21636XXSP,2013-10-28 09:57:00,
2013-10-28 05:02:00,35.8,28.1,30.20,West,270,0.0,0.0,73,0.00,,,0.00,WUHU21636XXSP,2013-10-28 10:02:00,
2013-10-28 05:07:00,35.8,28.1,30.20,SE,135,0.0,0.0,73,0.00,,,0.00,WUHU21636XXSP,2013-10-28 10:07:00,
2013-10-28 05:12:00,35.8,28.1,30.20,ESE,112,0.0,0.0,73,0.00,,,0.00,WUHU21636XXSP,2013-10-28 10:12:00,
2013-10-28 05:17:00,35.6,27.9,30.20,ESE,112,0.0,0.0,73,0.00,,,0.00,WUHU21636XXSP,2013-10-28 10:17:00,
2013-10-28 05:22:00,35.6,27.9,30.21,NNW,337,0.0,0.0,73,0.00,,,0.00,WUHU21636XXSP,2013-10-28 10:22:00,
2013-10-28 05:27:00,35.6,27.9,30.21,WSW,247,0.0,0.0,73,0.00,,,0.00,WUHU21636XXSP,2013-10-28 10:27:00,
2013-10-28 05:32:00,35.3,27.5,30.21,South,180,0.0,0.0,73,0.00,,,0.00,WUHU21636XXSP,2013-10-28 10:32:00,
2013-10-28 05:37:00,35.3,27.5,30.21,NNE,22,0.0,0.0,73,0.00,,,0.00,WUHU21636XXSP,2013-10-28 10:37:00,
2013-10-28 05:42:00,35.3,27.5,30.22,ESE,112,0.0,0.0,73,0.00,,,0.00,WUHU21636XXSP,2013-10-28 10:42:00,
2013-10-28 05:47:00,35.3,27.5,30.22,ESE,112,0.0,0.0,73,0.00,,,0.00,WUHU21636XXSP,2013-10-28 10:47:00,
2013-10-28 05:52:00,35.3,27.5,30.22,East,90,0.0,0.0,73,0.00,,,0.00,WUHU21636XXSP,2013-10-28 10:52:00,
2013-10-28 05:57:00,35.3,27.5,30.22,East,90,0.0,0.0,73,0.00,,,0.00,WUHU21636XXSP,2013-10-28 10:57:00,
2013-10-28 06:02:00,35.1,27.0,30.23,NW,315,0.0,0.0,72,0.00,,,0.00,WUHU21636XXSP,2013-10-28 11:02:00,
2013-10-28 06:07:00,35.1,27.0,30.23,SW,225,0.0,0.0,72,0.00,,,0.00,WUHU21636XXSP,2013-10-28 11:07:00,
2013-10-28 06:12:00,35.1,27.0,30.23,ESE,112,0.0,0.0,72,0.00,,,0.00,WUHU21636XXSP,2013-10-28 11:12:00,
2013-10-28 06:17:00,34.9,26.8,30.23,ENE,67,0.0,0.0,72,0.00,,,0.00,WUHU21636XXSP,2013-10-28 11:17:00,
2013-10-28 06:22:00,34.9,26.8,30.23,ENE,67,0.0,0.0,72,0.00,,,0.00,WUHU21636XXSP,2013-10-28 11:22:00,
2013-10-28 06:27:00,34.9,26.8,30.24,East,90,0.0,0.0,72,0.00,,,0.00,WUHU21636XXSP,2013-10-28 11:27:00,
2013-10-28 06:32:00,34.9,27.1,30.24,SSW,202,0.0,0.0,73,0.00,,,0.00,WUHU21636XXSP,2013-10-28 11:32:00,
2013-10-28 06:37:00,34.9,27.1,30.24,SSW,202,0.0,0.0,73,0.00,,,0.00,WUHU21636XXSP,2013-10-28 11:37:00,
2013-10-28 06:42:00,34.9,27.1,30.25,NNW,337,0.0,0.0,73,0.00,,,0.00,WUHU21636XXSP,2013-10-28 11:42:00,
2013-10-28 06:47:00,35.1,27.3,30.25,WNW,292,0.0,0.0,73,0.00,,,0.00,WUHU21636XXSP,2013-10-28 11:47:00,
2013-10-28 06:52:00,34.9,27.1,30.25,West,270,0.0,0.0,73,0.00,,,0.00,WUHU21636XXSP,2013-10-28 11:52:00,
2013-10-28 06:57:00,34.9,27.1,30.26,West,270,0.0,0.0,73,0.00,,,0.00,WUHU21636XXSP,2013-10-28 11:57:00,
2013-10-28 07:02:00,34.7,26.6,30.26,SE,135,0.0,0.0,72,0.00,,,0.00,WUHU21636XXSP,2013-10-28 12:02:00,
2013-10-28 07:07:00,34.5,26.8,30.26,NE,45,0.0,0.0,73,0.00,,,0.00,WUHU21636XXSP,2013-10-28 12:07:00,
2013-10-28 07:12:00,34.3,26.3,30.26,NE,45,0.0,0.0,72,0.00,,,0.00,WUHU21636XXSP,2013-10-28 12:12:00,
2013-10-28 07:17:00,34.1,26.1,30.27,SSW,202,0.0,0.0,72,0.00,,,0.00,WUHU21636XXSP,2013-10-28 12:17:00,
2013-10-28 07:22:00,33.9,25.9,30.27,ESE,112,0.0,0.0,72,0.00,,,0.00,WUHU21636XXSP,2013-10-28 12:22:00,
2013-10-28 07:27:00,33.9,26.2,30.27,ESE,112,0.0,0.0,73,0.00,,,0.00,WUHU21636XXSP,2013-10-28 12:27:00,
2013-10-28 07:32:00,33.7,26.0,30.27,South,180,0.0,0.0,73,0.00,,,0.00,WUHU21636XXSP,2013-10-28 12:32:00,
2013-10-28 07:37:00,33.7,26.0,30.28,NNE,22,0.0,0.0,73,0.00,,,0.00,WUHU21636XXSP,2013-10-28 12:37:00,
2013-10-28 07:42:00,33.4,25.7,30.28,NNE,22,0.0,0.0,73,0.00,,,0.00,WUHU21636XXSP,2013-10-28 12:42:00,
2013-10-28 07:47:00,33.4,25.7,30.28,SSE,157,0.0,0.0,73,0.00,,,0.00,WUHU21636XXSP,2013-10-28 12:47:00,
2013-10-28 07:52:00,33.2,25.5,30.29,SSE,157,0.0,0.0,73,0.00,,,0.00,WUHU21636XXSP,2013-10-28 12:52:00,
2013-10-28 07:57:00,33.2,25.5,30.29,SSE,157,0.0,0.0,73,0.00,,,0.00,WUHU21636XXSP,2013-10-28 12:57:00,
2013-10-28 08:02:00,33.0,25.3,30.30,SSE,157,0.0,0.0,73,0.00,,,0.00,WUHU21636XXSP,2013-10-28 13:02:00,
2013-10-28 08:07:00,33.0,25.3,30.30,SSE,157,0.0,0.0,73,0.00,,,0.00,WUHU21636XXSP,2013-10-28 13:07:00,
2013-10-28 08:12:00,33.0,25.6,30.30,SSE,157,0.0,0.0,74,0.00,,,0.00,WUHU21636XXSP,2013-10-28 13:12:00,
2013-10-28 08:17:00,33.2,25.8,30.31,SW,225,0.0,0.0,74,0.00,,,0.00,WUHU21636XXSP,2013-10-28 13:17:00,
2013-10-28 08:22:00,33.0,25.6,30.31,SE,135,0.0,0.0,74,0.00,,,0.00,WUHU21636XXSP,2013-10-28 13:22:00,
2013-10-28 08:27:00,33.0,25.6,30.31,ESE,112,0.0,0.0,74,0.00,,,0.00,WUHU21636XXSP,2013-10-28 13:27:00,
2013-10-28 08:32:00,33.0,25.6,30.31,East,90,0.0,0.0,74,0.00,,,0.00,WUHU21636XXSP,2013-10-28 13:32:00,
2013-10-28 08:37:00,33.0,25.6,30.32,NE,45,0.0,0.0,74,0.00,,,0.00,WUHU21636XXSP,2013-10-28 13:37:00,
2013-10-28 08:42:00,33.0,25.6,30.32,ENE,67,0.0,0.0,74,0.00,,,0.00,WUHU21636XXSP,2013-10-28 13:42:00,
2013-10-28 08:47:00,33.0,25.3,30.33,SE,135,0.0,0.0,73,0.00,,,0.00,WUHU21636XXSP,2013-10-28 13:47:00,
2013-10-28 08:52:00,33.4,25.4,30.33,ESE,112,0.0,0.0,72,0.00,,,0.00,WUHU21636XXSP,2013-10-28 13:52:00,
2013-10-28 08:57:00,33.6,25.6,30.33,SE,135,0.0,0.0,72,0.00,,,0.00,WUHU21636XXSP,2013-10-28 13:57:00,
2013-10-28 09:02:00,33.7,25.7,30.33,East,90,0.0,0.0,72,0.00,,,0.00,WUHU21636XXSP,2013-10-28 14:02:00,
2013-10-28 09:07:00,34.3,26.0,30.33,SE,135,0.0,0.0,71,0.00,,,0.00,WUHU21636XXSP,2013-10-28 14:07:00,
2013-10-28 09:12:00,34.5,25.8,30.34,SE,135,0.8,0.8,70,0.00,,,0.00,WUHU21636XXSP,2013-10-28 14:12:00,
2013-10-28 09:17:00,34.9,25.8,30.34,ESE,112,0.0,0.8,69,0.00,,,0.00,WUHU21636XXSP,2013-10-28 14:17:00,
2013-10-28 09:22:00,35.3,26.2,30.34,ENE,67,0.0,0.0,69,0.00,,,0.00,WUHU21636XXSP,2013-10-28 14:22:00,
2013-10-28 09:27:00,35.6,25.8,30.34,NE,45,0.0,0.0,67,0.00,,,0.00,WUHU21636XXSP,2013-10-28 14:27:00,
2013-10-28 09:32:00,35.8,25.6,30.34,ENE,67,0.0,0.0,66,0.00,,,0.00,WUHU21636XXSP,2013-10-28 14:32:00,
2013-10-28 09:37:00,36.4,25.9,30.35,ESE,112,0.0,0.0,65,0.00,,,0.00,WUHU21636XXSP,2013-10-28 14:37:00,
2013-10-28 09:42:00,36.5,26.0,30.36,ESE,112,0.0,0.0,65,0.00,,,0.00,WUHU21636XXSP,2013-10-28 14:42:00,
2013-10-28 09:47:00,37.0,26.4,30.36,East,90,0.0,0.0,65,0.00,,,0.00,WUHU21636XXSP,2013-10-28 14:47:00,
2013-10-28 09:52:00,37.5,25.7,30.36,ENE,67,0.0,0.0,62,0.00,,,0.00,WUHU21636XXSP,2013-10-28 14:52:00,
2013-10-28 09:57:00,37.7,25.9,30.36,NNE,22,0.0,0.0,62,0.00,,,0.00,WUHU21636XXSP,2013-10-28 14:57:00,
2013-10-28 10:02:00,38.1,26.3,30.35,WSW,247,0.0,0.0,62,0.00,,,0.00,WUHU21636XXSP,2013-10-28 15:02:00,
2013-10-28 10:07:00,38.4,26.2,30.35,ESE,112,0.0,0.0,61,0.00,,,0.00,WUHU21636XXSP,2013-10-28 15:07:00,
2013-10-28 10:12:00,38.4,25.8,30.35,NE,45,0.0,0.0,60,0.00,,,0.00,WUHU21636XXSP,2013-10-28 15:12:00,
2013-10-28 10:17:00,38.1,25.9,30.35,NW,315,0.0,0.0,61,0.00,,,0.00,WUHU21636XXSP,2013-10-28 15:17:00,
2013-10-28 10:22:00,38.4,26.2,30.36,NW,315,0.0,0.0,61,0.00,,,0.00,WUHU21636XXSP,2013-10-28 15:22:00,
2013-10-28 10:27:00,38.4,26.2,30.36,SW,225,0.0,0.0,61,0.00,,,0.00,WUHU21636XXSP,2013-10-28 15:27:00,
2013-10-28 10:32:00,38.4,25.4,30.36,NE,45,0.0,0.0,59,0.00,,,0.00,WUHU21636XXSP,2013-10-28 15:32:00,
2013-10-28 10:37:00,38.8,26.2,30.36,ENE,67,0.0,0.0,60,0.00,,,0.00,WUHU21636XXSP,2013-10-28 15:37:00,
2013-10-28 10:42:00,39.1,26.4,30.36,ESE,112,0.0,0.0,60,0.00,,,0.00,WUHU21636XXSP,2013-10-28 15:42:00,
2013-10-28 10:47:00,39.4,26.3,30.36,ENE,67,0.0,0.0,59,0.00,,,0.00,WUHU21636XXSP,2013-10-28 15:47:00,
2013-10-28 10:52:00,39.6,26.9,30.36,ESE,112,0.0,0.0,60,0.00,,,0.00,WUHU21636XXSP,2013-10-28 15:52:00,
2013-10-28 10:57:00,40.0,26.9,30.36,SE,135,0.0,0.0,59,0.00,,,0.00,WUHU21636XXSP,2013-10-28 15:57:00,
2013-10-28 11:02:00,40.2,27.1,30.36,East,90,0.0,0.0,59,0.00,,,0.00,WUHU21636XXSP,2013-10-28 16:02:00,
2013-10-28 11:07:00,40.3,27.2,30.36,ESE,112,0.0,0.0,59,0.00,,,0.00,WUHU21636XXSP,2013-10-28 16:07:00,
2013-10-28 11:12:00,40.5,26.5,30.36,East,90,0.0,0.0,57,0.00,,,0.00,WUHU21636XXSP,2013-10-28 16:12:00,
2013-10-28 11:17:00,40.5,26.1,30.36,North,0,0.0,0.0,56,0.00,,,0.00,WUHU21636XXSP,2013-10-28 16:17:00,
2013-10-28 11:22:00,40.5,26.5,30.36,East,90,0.0,0.0,57,0.00,,,0.00,WUHU21636XXSP,2013-10-28 16:22:00,
2013-10-28 11:27:00,40.7,26.7,30.37,East,90,0.0,0.0,57,0.00,,,0.00,WUHU21636XXSP,2013-10-28 16:27:00,
2013-10-28 11:32:00,41.2,27.1,30.37,ESE,112,0.0,0.0,57,0.00,,,0.00,WUHU21636XXSP,2013-10-28 16:32:00,
2013-10-28 11:37:00,41.5,27.4,30.37,East,90,0.0,0.0,57,0.00,,,0.00,WUHU21636XXSP,2013-10-28 16:37:00,
2013-10-28 11:42:00,41.9,26.9,30.36,WSW,247,0.0,0.0,55,0.00,,,0.00,WUHU21636XXSP,2013-10-28 16:42:00,
2013-10-28 11:47:00,41.5,27.0,30.37,NE,45,0.0,0.0,56,0.00,,,0.00,WUHU21636XXSP,2013-10-28 16:47:00,
2013-10-28 11:52:00,41.7,27.2,30.37,East,90,0.0,0.0,56,0.00,,,0.00,WUHU21636XXSP,2013-10-28 16:52:00,
2013-10-28 11:57:00,41.9,27.4,30.37,SE,135,0.0,0.0,56,0.00,,,0.00,WUHU21636XXSP,2013-10-28 16:57:00,
2013-10-28 12:02:00,41.9,26.9,30.37,SE,135,0.0,0.0,55,0.00,,,0.00,WUHU21636XXSP,2013-10-28 17:02:00,
2013-10-28 12:07:00,42.1,27.6,30.37,ESE,112,0.0,0.0,56,0.00,,,0.00,WUHU21636XXSP,2013-10-28 17:07:00,
2013-10-28 12:12:00,42.2,27.2,30.37,West,270,0.0,0.0,55,0.00,,,0.00,WUHU21636XXSP,2013-10-28 17:12:00,
2013-10-28 12:17:00,42.1,27.1,30.37,ESE,112,0.0,0.0,55,0.00,,,0.00,WUHU21636XXSP,2013-10-28 17:17:00,
2013-10-28 12:22:00,42.2,27.7,30.36,WNW,292,0.0,0.0,56,0.00,,,0.00,WUHU21636XXSP,2013-10-28 17:22:00,
2013-10-28 12:27:00,42.4,27.4,30.37,ENE,67,0.0,0.0,55,0.00,,,0.00,WUHU21636XXSP,2013-10-28 17:27:00,
2013-10-28 12:32:00,42.6,27.6,30.36,SE,135,0.0,0.0,55,0.00,,,0.00,WUHU21636XXSP,2013-10-28 17:32:00,
2013-10-28 12:37:00,42.8,27.3,30.36,NNW,337,0.0,0.0,54,0.00,,,0.00,WUHU21636XXSP,2013-10-28 17:37:00,
2013-10-28 12:42:00,43.2,27.2,30.36,West,270,0.0,0.0,53,0.00,,,0.00,WUHU21636XXSP,2013-10-28 17:42:00,
2013-10-28 12:47:00,42.8,26.9,30.36,NW,315,0.0,0.0,53,0.00,,,0.00,WUHU21636XXSP,2013-10-28 17:47:00,
2013-10-28 12:52:00,42.8,27.3,30.36,ESE,112,0.0,0.0,54,0.00,,,0.00,WUHU21636XXSP,2013-10-28 17:52:00,
2013-10-28 12:57:00,42.8,27.3,30.36,West,270,0.0,6.6,54,0.00,,,0.00,WUHU21636XXSP,2013-10-28 17:57:00,
2013-10-28 13:02:00,43.2,27.6,30.36,ESE,112,0.0,6.6,54,0.00,,,0.00,WUHU21636XXSP,2013-10-28 18:02:00,
2013-10-28 13:07:00,43.4,27.8,30.36,ESE,112,0.0,0.0,54,0.00,,,0.00,WUHU21636XXSP,2013-10-28 18:07:00,
2013-10-28 13:12:00,43.6,27.6,30.36,SE,135,0.0,0.0,53,0.00,,,0.00,WUHU21636XXSP,2013-10-28 18:12:00,
2013-10-28 13:17:00,43.8,27.8,30.35,SE,135,0.0,0.0,53,0.00,,,0.00,WUHU21636XXSP,2013-10-28 18:17:00,
2013-10-28 13:22:00,43.8,27.8,30.35,West,270,0.0,0.0,53,0.00,,,0.00,WUHU21636XXSP,2013-10-28 18:22:00,
2013-10-28 13:27:00,43.8,27.3,30.35,WSW,247,0.0,0.0,52,0.00,,,0.00,WUHU21636XXSP,2013-10-28 18:27:00,
2013-10-28 13:32:00,43.4,26.9,30.34,North,0,0.0,0.0,52,0.00,,,0.00,WUHU21636XXSP,2013-10-28 18:32:00,
2013-10-28 13:37:00,43.4,27.4,30.34,SE,135,7.0,7.0,53,0.00,,,0.00,WUHU21636XXSP,2013-10-28 18:37:00,
2013-10-28 13:42:00,43.8,27.8,30.34,WNW,292,0.0,7.0,53,0.00,,,0.00,WUHU21636XXSP,2013-10-28 18:42:00,
2013-10-28 13:47:00,43.6,27.6,30.34,NE,45,0.0,0.0,53,0.00,,,0.00,WUHU21636XXSP,2013-10-28 18:47:00,
2013-10-28 13:52:00,43.8,27.8,30.33,SE,135,0.0,0.0,53,0.00,,,0.00,WUHU21636XXSP,2013-10-28 18:52:00,
2013-10-28 13:57:00,44.0,28.0,30.34,SSE,157,0.0,4.4,53,0.00,,,0.00,WUHU21636XXSP,2013-10-28 18:57:00,
2013-10-28 14:02:00,44.1,27.1,30.34,SW,225,0.4,4.4,51,0.00,,,0.00,WUHU21636XXSP,2013-10-28 19:02:00,
2013-10-28 14:07:00,44.0,27.5,30.33,ESE,112,0.0,0.4,52,0.00,,,0.00,WUHU21636XXSP,2013-10-28 19:07:00,
2013-10-28 14:12:00,44.1,27.6,30.34,East,90,0.0,0.4,52,0.00,,,0.00,WUHU21636XXSP,2013-10-28 19:12:00,
2013-10-28 14:17:00,44.0,27.5,30.34,ESE,112,0.0,0.0,52,0.00,,,0.00,WUHU21636XXSP,2013-10-28 19:17:00,
2013-10-28 14:22:00,43.8,27.3,30.34,ENE,67,0.0,0.0,52,0.00,,,0.00,WUHU21636XXSP,2013-10-28 19:22:00,
2013-10-28 14:27:00,43.8,27.3,30.34,West,270,0.0,0.0,52,0.00,,,0.00,WUHU21636XXSP,2013-10-28 19:27:00,
2013-10-28 14:32:00,43.8,27.3,30.34,North,0,0.0,0.0,52,0.00,,,0.00,WUHU21636XXSP,2013-10-28 19:32:00,
2013-10-28 14:37:00,44.0,27.5,30.34,SSW,202,0.0,0.0,52,0.00,,,0.00,WUHU21636XXSP,2013-10-28 19:37:00,
2013-10-28 14:42:00,44.0,27.5,30.34,West,270,0.0,0.0,52,0.00,,,0.00,WUHU21636XXSP,2013-10-28 19:42:00,
2013-10-28 14:47:00,43.6,27.1,30.33,South,180,0.0,0.0,52,0.00,,,0.00,WUHU21636XXSP,2013-10-28 19:47:00,
2013-10-28 14:52:00,43.8,27.3,30.34,South,180,0.0,0.0,52,0.00,,,0.00,WUHU21636XXSP,2013-10-28 19:52:00,
2013-10-28 14:57:00,44.0,28.0,30.34,East,90,0.0,0.0,53,0.00,,,0.00,WUHU21636XXSP,2013-10-28 19:57:00,
2013-10-28 15:02:00,44.0,27.5,30.33,East,90,0.0,0.0,52,0.00,,,0.00,WUHU21636XXSP,2013-10-28 20:02:00,
2013-10-28 15:07:00,44.0,28.0,30.33,SSW,202,0.0,0.0,53,0.00,,,0.00,WUHU21636XXSP,2013-10-28 20:07:00,
2013-10-28 15:12:00,44.0,28.0,30.33,SE,135,0.0,0.0,53,0.00,,,0.00,WUHU21636XXSP,2013-10-28 20:12:00,
2013-10-28 15:17:00,44.1,27.6,30.34,ENE,67,0.0,0.0,52,0.00,,,0.00,WUHU21636XXSP,2013-10-28 20:17:00,
2013-10-28 15:22:00,44.0,27.5,30.34,SW,225,0.0,0.0,52,0.00,,,0.00,WUHU21636XXSP,2013-10-28 20:22:00,
2013-10-28 15:27:00,44.0,27.5,30.34,ENE,67,0.0,0.0,52,0.00,,,0.00,WUHU21636XXSP,2013-10-28 20:27:00,
2013-10-28 15:32:00,44.0,27.5,30.34,East,90,0.0,0.0,52,0.00,,,0.00,WUHU21636XXSP,2013-10-28 20:32:00,
2013-10-28 15:37:00,44.0,27.5,30.34,ESE,112,0.0,0.0,52,0.00,,,0.00,WUHU21636XXSP,2013-10-28 20:37:00,
2013-10-28 15:42:00,44.0,27.5,30.34,SW,225,0.0,0.0,52,0.00,,,0.00,WUHU21636XXSP,2013-10-28 20:42:00,
2013-10-28 15:47:00,43.8,27.3,30.34,West,270,0.0,0.0,52,0.00,,,0.00,WUHU21636XXSP,2013-10-28 20:47:00,
2013-10-28 15:52:00,43.8,27.3,30.34,WSW,247,0.0,0.0,52,0.00,,,0.00,WUHU21636XXSP,2013-10-28 20:52:00,
2013-10-28 15:57:00,43.2,26.7,30.34,West,270,0.0,0.0,52,0.00,,,0.00,WUHU21636XXSP,2013-10-28 20:57:00,
2013-10-28 16:02:00,43.0,27.1,30.34,SSE,157,0.0,0.0,53,0.00,,,0.00,WUHU21636XXSP,2013-10-28 21:02:00,
2013-10-28 16:07:00,42.8,26.9,30.35,West,270,0.0,0.0,53,0.00,,,0.00,WUHU21636XXSP,2013-10-28 21:07:00,
2013-10-28 16:12:00,42.8,26.9,30.35,SSE,157,0.0,0.0,53,0.00,,,0.00,WUHU21636XXSP,2013-10-28 21:12:00,
2013-10-28 16:17:00,42.8,26.9,30.35,South,180,0.0,0.0,53,0.00,,,0.00,WUHU21636XXSP,2013-10-28 21:17:00,
2013-10-28 16:22:00,42.8,27.3,30.35,ESE,112,0.0,0.0,54,0.00,,,0.00,WUHU21636XXSP,2013-10-28 21:22:00,
2013-10-28 16:27:00,42.8,26.9,30.35,West,270,0.0,0.0,53,0.00,,,0.00,WUHU21636XXSP,2013-10-28 21:27:00,
2013-10-28 16:32:00,42.8,26.9,30.34,WSW,247,0.0,0.0,53,0.00,,,0.00,WUHU21636XXSP,2013-10-28 21:32:00,
2013-10-28 16:37:00,42.4,26.5,30.34,SE,135,0.0,0.0,53,0.00,,,0.00,WUHU21636XXSP,2013-10-28 21:37:00,
2013-10-28 16:42:00,42.6,26.7,30.34,South,180,0.0,0.0,53,0.00,,,0.00,WUHU21636XXSP,2013-10-28 21:42:00,
2013-10-28 16:47:00,42.4,27.0,30.34,East,90,0.0,0.0,54,0.00,,,0.00,WUHU21636XXSP,2013-10-28 21:47:00,
2013-10-28 16:52:00,42.4,27.0,30.34,East,90,0.0,0.0,54,0.00,,,0.00,WUHU21636XXSP,2013-10-28 21:52:00,
2013-10-28 16:57:00,42.4,27.0,30.35,WNW,292,0.0,0.0,54,0.00,,,0.00,WUHU21636XXSP,2013-10-28 21:57:00,
2013-10-28 17:02:00,42.4,27.0,30.35,WNW,292,0.0,0.0,54,0.00,,,0.00,WUHU21636XXSP,2013-10-28 22:02:00,
2013-10-28 17:07:00,42.2,26.8,30.35,West,270,0.0,0.0,54,0.00,,,0.00,WUHU21636XXSP,2013-10-28 22:07:00,
2013-10-28 17:12:00,42.2,26.8,30.34,West,270,0.0,0.0,54,0.00,,,0.00,WUHU21636XXSP,2013-10-28 22:12:00,
2013-10-28 17:17:00,42.1,26.7,30.34,NE,45,0.0,0.0,54,0.00,,,0.00,WUHU21636XXSP,2013-10-28 22:17:00,
2013-10-28 17:22:00,42.1,26.7,30.35,NE,45,0.0,0.0,54,0.00,,,0.00,WUHU21636XXSP,2013-10-28 22:22:00,
2013-10-28 17:27:00,42.1,27.1,30.35,NE,45,0.0,0.0,55,0.00,,,0.00,WUHU21636XXSP,2013-10-28 22:27:00,
2013-10-28 17:32:00,41.9,26.9,30.34,NW,315,0.0,0.0,55,0.00,,,0.00,WUHU21636XXSP,2013-10-28 22:32:00,
2013-10-28 17:37:00,41.9,26.9,30.34,ENE,67,0.0,0.0,55,0.00,,,0.00,WUHU21636XXSP,2013-10-28 22:37:00,
2013-10-28 17:42:00,41.7,26.7,30.34,SW,225,0.0,0.0,55,0.00,,,0.00,WUHU21636XXSP,2013-10-28 22:42:00,
2013-10-28 17:47:00,41.7,27.2,30.34,ESE,112,0.0,0.0,56,0.00,,,0.00,WUHU21636XXSP,2013-10-28 22:47:00,
2013-10-28 17:52:00,41.5,27.0,30.34,ESE,112,0.0,0.0,56,0.00,,,0.00,WUHU21636XXSP,2013-10-28 22:52:00,
2013-10-28 17:57:00,41.5,27.0,30.35,ESE,112,0.0,0.0,56,0.00,,,0.00,WUHU21636XXSP,2013-10-28 22:57:00,
2013-10-28 18:02:00,41.5,27.0,30.35,ESE,112,0.0,0.0,56,0.00,,,0.00,WUHU21636XXSP,2013-10-28 23:02:00,
2013-10-28 18:07:00,41.5,27.0,30.34,ESE,112,0.0,0.0,56,0.00,,,0.00,WUHU21636XXSP,2013-10-28 23:07:00,
2013-10-28 18:12:00,41.5,27.0,30.35,ESE,112,0.0,0.0,56,0.00,,,0.00,WUHU21636XXSP,2013-10-28 23:12:00,
2013-10-28 18:17:00,41.5,27.0,30.34,ESE,112,0.0,0.0,56,0.00,,,0.00,WUHU21636XXSP,2013-10-28 23:17:00,
2013-10-28 18:22:00,41.5,27.4,30.35,SE,135,0.0,0.0,57,0.00,,,0.00,WUHU21636XXSP,2013-10-28 23:22:00,
2013-10-28 18:27:00,41.5,27.4,30.35,SE,135,0.0,0.0,57,0.00,,,0.00,WUHU21636XXSP,2013-10-28 23:27:00,
2013-10-28 18:32:00,41.5,27.4,30.35,SE,135,0.0,0.0,57,0.00,,,0.00,WUHU21636XXSP,2013-10-28 23:32:00,
2013-10-28 18:37:00,41.5,27.4,30.35,SE,135,0.0,0.0,57,0.00,,,0.00,WUHU21636XXSP,2013-10-28 23:37:00,
2013-10-28 18:42:00,41.3,27.2,30.36,SE,135,0.0,0.0,57,0.00,,,0.00,WUHU21636XXSP,2013-10-28 23:42:00,
2013-10-28 18:47:00,41.3,27.2,30.36,SE,135,0.0,0.0,57,0.00,,,0.00,WUHU21636XXSP,2013-10-28 23:47:00,
2013-10-28 18:52:00,41.3,27.6,30.36,SE,135,0.0,0.0,58,0.00,,,0.00,WUHU21636XXSP,2013-10-28 23:52:00,
2013-10-28 18:57:00,41.3,28.1,30.35,SE,135,0.0,0.0,59,0.00,,,0.00,WUHU21636XXSP,2013-10-28 23:57:00,
2013-10-28 19:02:00,41.3,27.6,30.36,SE,135,0.0,0.0,58,0.00,,,0.00,WUHU21636XXSP,2013-10-29 00:02:00,
2013-10-28 19:07:00,41.2,27.5,30.36,SE,135,0.0,0.0,58,0.00,,,0.00,WUHU21636XXSP,2013-10-29 00:07:00,
2013-10-28 19:12:00,41.2,28.0,30.36,SE,135,0.0,0.0,59,0.00,,,0.00,WUHU21636XXSP,2013-10-29 00:12:00,
2013-10-28 19:17:00,41.2,28.0,30.36,SE,135,0.0,0.0,59,0.00,,,0.00,WUHU21636XXSP,2013-10-29 00:17:00,
2013-10-28 19:22:00,41.0,27.8,30.36,SE,135,0.0,0.0,59,0.00,,,0.00,WUHU21636XXSP,2013-10-29 00:22:00,
2013-10-28 19:27:00,41.0,27.8,30.36,SE,135,0.0,0.0,59,0.00,,,0.00,WUHU21636XXSP,2013-10-29 00:27:00,
2013-10-28 19:32:00,41.0,27.3,30.36,East,90,0.0,0.0,58,0.00,,,0.00,WUHU21636XXSP,2013-10-29 00:32:00,
2013-10-28 19:37:00,40.7,27.6,30.36,SE,135,0.0,0.0,59,0.00,,,0.00,WUHU21636XXSP,2013-10-29 00:37:00,
2013-10-28 19:42:00,40.7,27.2,30.36,SE,135,0.0,0.0,58,0.00,,,0.00,WUHU21636XXSP,2013-10-29 00:42:00,
2013-10-28 19:47:00,40.5,27.4,30.36,SE,135,0.0,0.0,59,0.00,,,0.00,WUHU21636XXSP,2013-10-29 00:47:00,
2013-10-28 19:52:00,40.5,27.4,30.36,NE,45,0.0,0.0,59,0.00,,,0.00,WUHU21636XXSP,2013-10-29 00:52:00,
2013-10-28 19:57:00,40.5,27.4,30.36,ENE,67,0.0,0.0,59,0.00,,,0.00,WUHU21636XXSP,2013-10-29 00:57:00,
2013-10-28 20:02:00,40.5,27.4,30.36,ESE,112,0.0,0.0,59,0.00,,,0.00,WUHU21636XXSP,2013-10-29 01:02:00,
2013-10-28 20:07:00,40.5,27.0,30.36,ENE,67,0.0,0.0,58,0.00,,,0.00,WUHU21636XXSP,2013-10-29 01:07:00,
2013-10-28 20:12:00,40.5,27.0,30.37,ENE,67,0.0,0.0,58,0.00,,,0.00,WUHU21636XXSP,2013-10-29 01:12:00,
2013-10-28 20:17:00,40.5,27.0,30.37,ENE,67,0.0,0.0,58,0.00,,,0.00,WUHU21636XXSP,2013-10-29 01:17:00,
2013-10-28 20:22:00,40.5,27.0,30.37,ENE,67,0.0,0.0,58,0.00,,,0.00,WUHU21636XXSP,2013-10-29 01:22:00,
2013-10-28 20:27:00,40.3,26.8,30.37,NE,45,0.0,0.0,58,0.00,,,0.00,WUHU21636XXSP,2013-10-29 01:27:00,
2013-10-28 20:32:00,40.5,27.4,30.37,NE,45,0.0,0.0,59,0.00,,,0.00,WUHU21636XXSP,2013-10-29 01:32:00,
2013-10-28 20:37:00,40.5,27.8,30.37,ENE,67,0.0,0.0,60,0.00,,,0.00,WUHU21636XXSP,2013-10-29 01:37:00,
2013-10-28 20:42:00,40.5,27.4,30.37,ENE,67,0.0,0.0,59,0.00,,,0.00,WUHU21636XXSP,2013-10-29 01:42:00,
2013-10-28 20:47:00,40.3,26.8,30.37,West,270,0.0,0.0,58,0.00,,,0.00,WUHU21636XXSP,2013-10-29 01:47:00,
2013-10-28 20:52:00,40.2,27.1,30.37,WSW,247,0.0,0.0,59,0.00,,,0.00,WUHU21636XXSP,2013-10-29 01:52:00,
2013-10-28 20:57:00,40.3,27.2,30.37,South,180,0.0,0.0,59,0.00,,,0.00,WUHU21636XXSP,2013-10-29 01:57:00,
2013-10-28 21:02:00,40.3,27.2,30.37,South,180,0.0,0.0,59,0.00,,,0.00,WUHU21636XXSP,2013-10-29 02:02:00,
2013-10-28 21:07:00,40.2,27.1,30.36,SW,225,0.0,0.0,59,0.00,,,0.00,WUHU21636XXSP,2013-10-29 02:07:00,
2013-10-28 21:12:00,40.2,27.5,30.37,SW,225,0.0,0.0,60,0.00,,,0.00,WUHU21636XXSP,2013-10-29 02:12:00,
2013-10-28 21:17:00,40.2,27.5,30.37,SW,225,0.0,0.0,60,0.00,,,0.00,WUHU21636XXSP,2013-10-29 02:17:00,
2013-10-28 21:22:00,40.2,27.5,30.36,SW,225,0.0,0.0,60,0.00,,,0.00,WUHU21636XXSP,2013-10-29 02:22:00,
2013-10-28 21:27:00,40.2,27.5,30.37,SW,225,0.0,0.0,60,0.00,,,0.00,WUHU21636XXSP,2013-10-29 02:27:00,
2013-10-28 21:32:00,40.2,27.5,30.37,SW,225,0.0,0.0,60,0.00,,,0.00,WUHU21636XXSP,2013-10-29 02:32:00,
2013-10-28 21:37:00,40.2,27.5,30.36,SW,225,0.0,0.0,60,0.00,,,0.00,WUHU21636XXSP,2013-10-29 02:37:00,
2013-10-28 21:42:00,40.2,27.5,30.36,SW,225,0.0,0.0,60,0.00,,,0.00,WUHU21636XXSP,2013-10-29 02:42:00,
2013-10-28 21:47:00,40.2,27.5,30.37,SW,225,0.0,0.0,60,0.00,,,0.00,WUHU21636XXSP,2013-10-29 02:47:00,
2013-10-28 21:52:00,40.2,27.5,30.36,SW,225,0.0,0.0,60,0.00,,,0.00,WUHU21636XXSP,2013-10-29 02:52:00,
2013-10-28 21:57:00,40.0,27.3,30.36,SW,225,0.0,0.0,60,0.00,,,0.00,WUHU21636XXSP,2013-10-29 02:57:00,
2013-10-28 22:02:00,40.0,27.7,30.36,SW,225,0.0,0.0,61,0.00,,,0.00,WUHU21636XXSP,2013-10-29 03:02:00,
2013-10-28 22:07:00,40.0,27.3,30.36,SW,225,0.0,0.0,60,0.00,,,0.00,WUHU21636XXSP,2013-10-29 03:07:00,
2013-10-28 22:12:00,40.0,27.7,30.36,NE,45,0.0,0.0,61,0.00,,,0.00,WUHU21636XXSP,2013-10-29 03:12:00,
2013-10-28 22:17:00,40.0,28.5,30.36,South,180,0.0,0.0,63,0.00,,,0.00,WUHU21636XXSP,2013-10-29 03:17:00,
2013-10-28 22:22:00,40.0,28.1,30.36,NE,45,0.0,0.0,62,0.00,,,0.00,WUHU21636XXSP,2013-10-29 03:22:00,
2013-10-28 22:27:00,40.0,28.1,30.36,ESE,112,0.0,0.0,62,0.00,,,0.00,WUHU21636XXSP,2013-10-29 03:27:00,
2013-10-28 22:32:00,40.0,28.5,30.36,ESE,112,0.0,0.0,63,0.00,,,0.00,WUHU21636XXSP,2013-10-29 03:32:00,
2013-10-28 22:37:00,40.0,28.5,30.36,ESE,112,0.0,0.0,63,0.00,,,0.00,WUHU21636XXSP,2013-10-29 03:37:00,
2013-10-28 22:42:00,39.6,26.9,30.36,ENE,67,0.0,0.0,60,0.00,,,0.00,WUHU21636XXSP,2013-10-29 03:42:00,
2013-10-28 22:47:00,39.6,27.3,30.36,ENE,67,0.0,0.0,61,0.00,,,0.00,WUHU21636XXSP,2013-10-29 03:47:00,
2013-10-28 22:52:00,39.6,26.9,30.36,ENE,67,0.0,0.0,60,0.00,,,0.00,WUHU21636XXSP,2013-10-29 03:52:00,
2013-10-28 22:57:00,39.6,26.9,30.36,ENE,67,0.0,0.0,60,0.00,,,0.00,WUHU21636XXSP,2013-10-29 03:57:00,
2013-10-28 23:01:00,39.6,26.9,30.36,ENE,67,0.0,0.0,60,0.00,,,0.00,WUHU21636XXSP,2013-10-29 04:01:00,
2013-10-28 23:02:00,39.4,26.7,30.36,ENE,67,0.0,0.0,60,0.00,,,0.00,WUHU21636XXSP,2013-10-29 04:02:00,
2013-10-28 23:07:00,39.4,26.7,30.36,NE,45,0.0,0.0,60,0.00,,,0.00,WUHU21636XXSP,2013-10-29 04:07:00,
2013-10-28 23:12:00,39.4,26.7,30.35,ENE,67,0.0,0.0,60,0.00,,,0.00,WUHU21636XXSP,2013-10-29 04:12:00,
2013-10-28 23:17:00,39.4,27.1,30.36,SW,225,0.0,0.0,61,0.00,,,0.00,WUHU21636XXSP,2013-10-29 04:17:00,
2013-10-28 23:22:00,39.4,26.7,30.36,NE,45,0.0,0.0,60,0.00,,,0.00,WUHU21636XXSP,2013-10-29 04:22:00,
2013-10-28 23:27:00,39.3,27.0,30.35,ENE,67,0.0,0.0,61,0.00,,,0.00,WUHU21636XXSP,2013-10-29 04:27:00,
2013-10-28 23:32:00,39.1,26.8,30.35,ESE,112,0.0,0.0,61,0.00,,,0.00,WUHU21636XXSP,2013-10-29 04:32:00,
2013-10-28 23:37:00,39.1,26.8,30.35,NE,45,0.0,0.0,61,0.00,,,0.00,WUHU21636XXSP,2013-10-29 04:37:00,
2013-10-28 23:42:00,39.1,26.8,30.36,East,90,0.0,0.0,61,0.00,,,0.00,WUHU21636XXSP,2013-10-29 04:42:00,
2013-10-28 23:47:00,39.1,26.8,30.36,NE,45,0.0,0.0,61,0.00,,,0.00,WUHU21636XXSP,2013-10-29 04:47:00,
2013-10-28 23:52:00,38.8,26.6,30.36,NE,45,0.0,0.0,61,0.00,,,0.00,WUHU21636XXSP,2013-10-29 04:52:00,
2013-10-28 23:57:00,38.8,26.6,30.35,ESE,112,0.0,0.0,61,0.00,,,0.00,WUHU21636XXSP,2013-10-29 04:57:00,